Terminal Aerodrome Forecast
Issued by NWS

Home | Current Version | Previous Version | Text Only | Print | Product List | Glossary On
Versions: 1 2 3 4 5 6 7 8 9 10 11 12 13 14 15 16 17 18 19
000
FTUS43 KGRR 192341
TAFJXN
TAF
KJXN 192341Z 2000/2024 20012KT 2SM -SHRA BR OVC008 WS020/21045KT
     FM200300 19010KT 1SM RA BR OVC004 WS014/21050KT
     FM201500 21014G23KT 1SM RA BR OVC004 WS014/22055KT=

USA.gov is the U.S. government's official web portal to all federal, state and local government web resources and services.